Time;durP1;ratioP1;P1;durP2;ratioP2;P2;SDS_P1;SDS_P2;PMS_P1;PMS_P2;Temp;Humidity;BMP_temperature;BMP_pressure;BME280_temperature;BME280_humidity;BME280_pressure;Samples;Min_cycle;Max_cycle;Signal;HPM_P1;HPM_P2
2021/06/02 00:00:39;;;;;;;5.78;3.75;;;13.10;78.10;;;;;;5072412;28;20046;-66
2021/06/02 00:03:08;;;;;;;4.57;3.45;;;13.10;77.80;;;;;;5073018;28;20107;-66
2021/06/02 00:05:34;;;;;;;4.20;3.80;;;13.10;78.00;;;;;;5072804;28;20128;-66
2021/06/02 00:08:00;;;;;;;4.68;4.25;;;13.00;78.00;;;;;;5071836;28;20115;-66
2021/06/02 00:10:26;;;;;;;4.35;3.70;;;13.00;78.10;;;;;;5072132;28;20021;-66
2021/06/02 00:12:53;;;;;;;5.07;4.10;;;12.90;78.10;;;;;;5071573;28;20086;-66
2021/06/02 00:15:19;;;;;;;5.70;4.50;;;12.90;78.50;;;;;;5072171;28;20017;-66
2021/06/02 00:17:45;;;;;;;6.03;4.15;;;12.80;79.20;;;;;;5072529;28;20036;-66
2021/06/02 00:20:11;;;;;;;4.13;3.55;;;12.80;79.50;;;;;;5072464;28;20029;-66
2021/06/02 00:22:38;;;;;;;4.78;4.28;;;12.70;79.80;;;;;;5072650;28;20056;-66
2021/06/02 00:25:06;;;;;;;5.80;3.83;;;12.70;80.10;;;;;;5072760;28;20082;-66
2021/06/02 00:27:32;;;;;;;4.40;3.83;;;12.70;80.10;;;;;;5072226;28;20032;-66
2021/06/02 00:30:03;;;;;;;6.20;4.18;;;12.70;80.40;;;;;;5069892;28;20054;-66
2021/06/02 00:32:30;;;;;;;4.68;3.90;;;12.70;80.50;;;;;;5072706;28;20373;-66
2021/06/02 00:34:56;;;;;;;5.15;4.35;;;12.70;80.70;;;;;;5072237;28;20016;-66
2021/06/02 00:37:23;;;;;;;6.53;4.05;;;12.70;81.00;;;;;;5072317;28;20484;-66
2021/06/02 00:39:50;;;;;;;6.97;4.18;;;12.60;81.00;;;;;;5060193;28;20029;-66
2021/06/02 00:42:16;;;;;;;5.30;4.10;;;12.60;80.80;;;;;;5052635;28;20025;-66
2021/06/02 00:44:42;;;;;;;4.75;3.95;;;12.60;81.00;;;;;;5070887;28;20082;-66
2021/06/02 00:47:07;;;;;;;5.75;4.47;;;12.60;81.30;;;;;;5074263;28;20052;-66
2021/06/02 00:49:33;;;;;;;5.07;3.72;;;12.60;81.60;;;;;;5076290;28;20035;-66
2021/06/02 00:52:05;;;;;;;4.55;3.70;;;12.60;81.50;;;;;;5076276;28;20025;-66
2021/06/02 00:54:36;;;;;;;5.47;3.80;;;12.60;81.60;;;;;;5075300;28;20074;-66
2021/06/02 00:57:11;;;;;;;5.45;4.13;;;12.50;81.70;;;;;;5071016;28;20050;-66
2021/06/02 00:59:43;;;;;;;4.78;4.10;;;12.50;82.00;;;;;;5076157;28;20086;-66
2021/06/02 01:02:16;;;;;;;5.18;4.13;;;12.50;82.10;;;;;;5075040;28;20488;-66
2021/06/02 01:04:44;;;;;;;5.07;4.03;;;12.50;82.30;;;;;;5075915;28;20020;-66
2021/06/02 01:07:11;;;;;;;4.63;3.85;;;12.50;82.30;;;;;;5075801;28;20496;-66
2021/06/02 01:09:44;;;;;;;4.35;3.67;;;12.50;82.60;;;;;;5075951;28;20013;-66
2021/06/02 01:12:13;;;;;;;4.53;4.10;;;12.50;82.50;;;;;;5075887;28;20024;-66
2021/06/02 01:14:39;;;;;;;4.55;3.88;;;12.50;83.00;;;;;;5075497;28;20044;-66
2021/06/02 01:17:06;;;;;;;4.55;3.95;;;12.50;82.90;;;;;;5073942;28;20098;-66
2021/06/02 01:19:32;;;;;;;4.00;3.30;;;12.50;83.00;;;;;;5074720;28;20021;-66
2021/06/02 01:22:00;;;;;;;6.47;4.03;;;12.40;83.20;;;;;;5075735;28;20107;-66
2021/06/02 01:24:29;;;;;;;5.63;3.90;;;12.40;83.60;;;;;;5075726;28;20160;-66
2021/06/02 01:26:56;;;;;;;5.43;4.00;;;12.40;83.60;;;;;;5074510;28;20016;-66
2021/06/02 01:29:23;;;;;;;5.93;3.78;;;12.40;83.70;;;;;;5071056;28;20033;-66
2021/06/02 01:31:48;;;;;;;5.40;4.00;;;12.40;83.60;;;;;;5074426;28;20033;-66
2021/06/02 01:34:41;;;;;;;4.53;3.63;;;12.40;83.90;;;;;;5075490;28;20021;-66
2021/06/02 01:37:19;;;;;;;5.03;3.90;;;12.30;83.90;;;;;;5058979;28;20025;-66
2021/06/02 01:40:22;;;;;;;4.93;4.18;;;12.30;84.20;;;;;;5055711;28;20074;-66
2021/06/02 01:43:30;;;;;;;4.05;3.65;;;12.30;84.40;;;;;;5041774;28;20043;-66
2021/06/02 01:46:04;;;;;;;5.10;3.65;;;12.30;84.50;;;;;;5067588;28;20069;-66
2021/06/02 01:48:34;;;;;;;4.53;3.63;;;12.30;84.70;;;;;;5075034;28;20094;-66
2021/06/02 01:51:19;;;;;;;6.65;3.97;;;12.30;85.00;;;;;;5074637;28;20025;-66
2021/06/02 01:54:08;;;;;;;4.78;3.53;;;12.30;85.30;;;;;;5075132;28;20039;-66
2021/06/02 01:57:06;;;;;;;4.45;3.80;;;12.20;85.30;;;;;;5074470;28;20039;-66
2021/06/02 02:00:09;;;;;;;3.97;3.42;;;12.30;85.50;;;;;;5075025;28;20032;-66
2021/06/02 02:02:55;;;;;;;4.20;3.72;;;12.20;85.40;;;;;;5071796;28;20032;-66
2021/06/02 02:06:04;;;;;;;5.07;4.07;;;12.20;85.90;;;;;;5074462;28;20082;-66
2021/06/02 02:08:42;;;;;;;4.88;3.72;;;12.20;86.10;;;;;;5074891;28;20358;-66
2021/06/02 02:11:37;;;;;;;4.50;3.67;;;12.20;86.30;;;;;;5074131;28;20103;-66
2021/06/02 02:14:27;;;;;;;4.30;3.42;;;12.20;86.40;;;;;;5054810;28;20025;-66
2021/06/02 02:17:24;;;;;;;3.92;3.47;;;12.20;86.70;;;;;;5054354;28;20021;-66
2021/06/02 02:20:11;;;;;;;4.30;3.60;;;12.20;86.90;;;;;;5065996;28;20384;-66
2021/06/02 02:23:02;;;;;;;5.53;3.75;;;12.10;87.10;;;;;;5074671;28;20025;-66
2021/06/02 02:25:38;;;;;;;5.60;3.83;;;12.10;87.50;;;;;;5073911;28;20025;-66
2021/06/02 02:28:34;;;;;;;5.22;3.72;;;12.10;87.50;;;;;;5073526;28;20396;-66
2021/06/02 02:31:51;;;;;;;4.20;3.45;;;12.10;87.60;;;;;;5073283;28;20032;-66
2021/06/02 02:34:43;;;;;;;4.70;3.47;;;12.20;87.90;;;;;;5040420;28;20045;-66
2021/06/02 02:37:21;;;;;;;3.92;3.53;;;12.20;87.90;;;;;;5074340;28;20073;-66
2021/06/02 02:40:09;;;;;;;5.45;3.70;;;12.20;88.10;;;;;;5073673;28;20472;-66
2021/06/02 02:42:55;;;;;;;4.55;3.38;;;12.20;87.80;;;;;;5074185;28;20032;-66
2021/06/02 02:45:32;;;;;;;5.97;3.72;;;12.20;88.00;;;;;;5074174;28;20372;-66
2021/06/02 02:48:46;;;;;;;5.32;3.70;;;12.20;88.00;;;;;;5073051;28;20119;-66
2021/06/02 02:51:23;;;;;;;3.85;3.45;;;12.20;88.20;;;;;;5012261;28;20046;-66
2021/06/02 02:53:49;;;;;;;4.75;3.50;;;12.20;88.40;;;;;;5066186;28;20076;-66
2021/06/02 02:56:42;;;;;;;4.07;3.60;;;12.30;88.20;;;;;;5072469;28;20055;-66
2021/06/02 02:59:20;;;;;;;4.30;3.50;;;12.30;88.20;;;;;;5054985;28;20056;-66
2021/06/02 03:02:11;;;;;;;3.60;3.03;;;12.30;88.90;;;;;;5069622;28;20028;-66
2021/06/02 03:04:42;;;;;;;;;;;12.40;88.30;;;;;;5074259;28;20036;-66
2021/06/02 03:07:11;;;;;;;3.60;3.13;;;12.30;88.10;;;;;;5073692;28;19904;-66
2021/06/02 03:09:49;;;;;;;4.32;3.30;;;12.30;87.90;;;;;;5073073;28;20021;-66
2021/06/02 03:12:32;;;;;;;4.82;3.55;;;12.30;88.00;;;;;;5072312;28;20486;-66
2021/06/02 03:15:10;;;;;;;3.40;2.90;;;12.40;88.30;;;;;;5072930;28;20028;-66
2021/06/02 03:17:48;;;;;;;3.25;2.95;;;12.30;88.20;;;;;;5073015;28;20028;-66
2021/06/02 03:20:25;;;;;;;5.15;3.30;;;12.30;88.20;;;;;;5071676;28;20065;-66
2021/06/02 03:23:30;;;;;;;3.28;2.97;;;12.30;88.30;;;;;;5072401;28;20059;-66
2021/06/02 03:25:58;;;;;;;3.72;3.28;;;12.40;88.20;;;;;;5064453;28;20036;-66
2021/06/02 03:28:45;;;;;;;4.75;3.30;;;12.30;88.30;;;;;;5073469;28;20408;-66
2021/06/02 03:31:26;;;;;;;4.50;3.45;;;12.30;88.30;;;;;;5069933;28;20029;-66
2021/06/02 03:34:15;;;;;;;4.68;3.25;;;12.30;88.40;;;;;;5073299;28;20380;-66
2021/06/02 03:37:29;;;;;;;4.22;3.50;;;12.30;88.70;;;;;;5073342;28;20051;-66
2021/06/02 03:40:16;;;;;;;4.10;3.40;;;12.30;88.90;;;;;;5054703;28;20443;-66
2021/06/02 03:42:48;;;;;;;3.90;2.97;;;12.30;88.80;;;;;;5073275;28;20024;-66
2021/06/02 03:45:31;;;;;;;3.85;3.20;;;12.30;88.90;;;;;;5072909;28;20039;-67
2021/06/02 03:48:15;;;;;;;4.53;3.10;;;12.30;88.80;;;;;;5073011;28;20044;-66
2021/06/02 03:51:05;;;;;;;4.15;3.42;;;12.30;88.80;;;;;;5072306;28;20101;-66
2021/06/02 03:54:04;;;;;;;4.30;3.40;;;12.30;88.80;;;;;;5070263;28;20078;-66
2021/06/02 03:56:57;;;;;;;4.28;3.47;;;12.30;89.40;;;;;;5071258;28;20032;-66
2021/06/02 03:59:44;;;;;;;3.03;2.80;;;12.30;90.00;;;;;;5070950;28;20029;-66
2021/06/02 04:02:45;;;;;;;3.67;3.17;;;12.30;89.60;;;;;;5072662;28;20035;-66
2021/06/02 04:05:35;;;;;;;4.00;3.33;;;12.30;89.30;;;;;;5072956;28;20070;-66
2021/06/02 04:08:13;;;;;;;3.53;2.92;;;12.30;89.40;;;;;;5072751;28;20021;-66
2021/06/02 04:10:50;;;;;;;3.35;3.05;;;12.30;89.70;;;;;;5072837;28;20032;-66
2021/06/02 04:13:34;;;;;;;3.80;3.40;;;12.30;89.70;;;;;;5073122;28;20476;-66
2021/06/02 04:16:13;;;;;;;4.72;3.00;;;12.30;89.70;;;;;;5071929;28;20074;-66
2021/06/02 04:18:41;;;;;;;3.42;3.13;;;12.40;89.60;;;;;;5071480;28;20028;-66
2021/06/02 04:21:08;;;;;;;3.72;2.88;;;12.30;89.70;;;;;;5075736;28;20024;-66
2021/06/02 04:23:37;;;;;;;3.10;2.80;;;12.40;89.80;;;;;;5076911;28;20055;-66
2021/06/02 04:26:03;;;;;;;3.42;3.08;;;12.40;89.80;;;;;;5076594;28;20051;-66
2021/06/02 04:28:33;;;;;;;4.35;2.95;;;12.40;89.70;;;;;;5076748;28;20376;-66
2021/06/02 04:31:11;;;;;;;3.63;3.22;;;12.40;89.70;;;;;;5076221;28;20423;-66
2021/06/02 04:33:42;;;;;;;4.20;3.13;;;12.40;90.10;;;;;;5075436;28;20112;-66
2021/06/02 04:36:10;;;;;;;3.80;3.10;;;12.40;90.10;;;;;;5076652;28;20025;-66
2021/06/02 04:38:36;;;;;;;3.80;2.97;;;12.50;90.20;;;;;;5076622;28;20029;-66
2021/06/02 04:41:04;;;;;;;3.30;3.00;;;12.40;90.20;;;;;;5076514;28;20035;-66
2021/06/02 04:43:33;;;;;;;3.65;3.28;;;12.50;90.10;;;;;;5076481;28;20384;-66
2021/06/02 04:46:03;;;;;;;3.05;2.72;;;12.50;89.90;;;;;;5075684;28;20032;-66
2021/06/02 04:48:29;;;;;;;3.70;3.00;;;12.50;90.00;;;;;;5076202;28;20074;-66
2021/06/02 04:51:05;;;;;;;4.43;3.00;;;12.40;90.10;;;;;;5076338;28;20028;-66
2021/06/02 04:53:36;;;;;;;3.17;2.70;;;12.50;90.10;;;;;;5075588;28;20366;-66
2021/06/02 04:56:11;;;;;;;3.92;3.35;;;12.50;90.20;;;;;;5076040;28;20057;-66
2021/06/02 04:59:04;;;;;;;3.20;2.90;;;12.50;90.50;;;;;;5073830;28;20024;-66
2021/06/02 05:01:54;;;;;;;4.43;3.15;;;12.50;90.30;;;;;;5063964;28;20056;-66
2021/06/02 05:04:39;;;;;;;3.58;2.88;;;12.60;90.30;;;;;;5055750;28;20944;-66
2021/06/02 05:07:24;;;;;;;3.33;3.03;;;12.60;90.20;;;;;;5055321;28;20041;-66
2021/06/02 05:10:16;;;;;;;3.92;3.08;;;12.60;90.20;;;;;;5066795;28;20035;-67
2021/06/02 05:13:16;;;;;;;2.72;2.53;;;12.60;90.20;;;;;;5075688;28;20024;-66
2021/06/02 05:15:47;;;;;;;3.30;3.00;;;12.50;90.30;;;;;;5071809;28;20024;-66
2021/06/02 05:18:21;;;;;;;;;;;12.50;90.40;;;;;;5074241;28;20025;-66
2021/06/02 05:24:08;;;;;;;6.38;3.30;;;12.50;90.50;;;;;;5065526;28;20028;-66
2021/06/02 05:27:05;;;;;;;3.58;3.22;;;12.50;90.60;;;;;;5072626;28;20369;-66
2021/06/02 05:30:04;;;;;;;3.92;3.30;;;12.50;90.60;;;;;;5066999;28;20029;-65
2021/06/02 05:33:05;;;;;;;3.78;3.20;;;12.50;90.50;;;;;;5065322;28;20056;-66
2021/06/02 05:35:50;;;;;;;4.10;3.42;;;12.60;90.60;;;;;;5045227;28;20053;-56
2021/06/02 05:38:34;;;;;;;3.10;2.80;;;12.60;90.70;;;;;;5068726;28;20029;-54
2021/06/02 05:41:07;;;;;;;3.85;3.15;;;12.60;90.60;;;;;;5064050;28;20495;-57
2021/06/02 05:43:53;;;;;;;3.92;2.90;;;12.60;90.60;;;;;;5064055;28;20499;-54
2021/06/02 05:46:38;;;;;;;4.70;3.40;;;12.60;90.70;;;;;;5066335;28;20070;-63
2021/06/02 05:49:22;;;;;;;5.72;3.05;;;12.60;90.80;;;;;;5068759;28;20369;-63
2021/06/02 05:52:16;;;;;;;4.13;2.85;;;12.60;90.80;;;;;;5063765;28;20041;-63
2021/06/02 05:55:06;;;;;;;4.20;3.05;;;12.60;90.70;;;;;;5065451;28;20033;-63
2021/06/02 05:57:54;;;;;;;3.97;3.30;;;12.60;90.80;;;;;;5068832;28;20066;-62
2021/06/02 06:00:22;;;;;;;3.22;2.90;;;12.60;90.80;;;;;;5065743;28;20422;-64
2021/06/02 06:03:37;;;;;;;4.25;3.70;;;12.70;90.70;;;;;;5067363;28;20085;-58
2021/06/02 06:06:11;;;;;;;7.10;4.05;;;12.70;90.80;;;;;;5064325;28;20032;-59
2021/06/02 06:09:18;;;;;;;6.60;4.63;;;12.70;90.80;;;;;;5062504;28;20028;-56
2021/06/02 06:12:14;;;;;;;4.70;3.30;;;12.60;90.70;;;;;;5065783;28;20041;-57
2021/06/02 06:14:58;;;;;;;5.43;3.17;;;12.60;90.70;;;;;;5058986;28;20028;-56
2021/06/02 06:17:41;;;;;;;4.28;3.40;;;12.70;90.70;;;;;;5064065;28;20028;-56
2021/06/02 06:20:16;;;;;;;4.68;3.38;;;12.70;90.70;;;;;;5067508;28;20086;-56
2021/06/02 06:22:51;;;;;;;4.45;3.30;;;12.70;90.80;;;;;;5067967;28;20043;-55
2021/06/02 06:25:24;;;;;;;5.38;3.17;;;12.70;90.80;;;;;;5058998;28;20032;-55
2021/06/02 06:28:09;;;;;;;4.95;3.40;;;12.80;90.70;;;;;;5061540;28;20107;-62
2021/06/02 06:30:39;;;;;;;4.55;3.30;;;12.80;90.60;;;;;;5068272;28;20476;-62
2021/06/02 06:33:11;;;;;;;4.45;3.75;;;12.80;90.70;;;;;;5060334;28;20020;-62
2021/06/02 06:35:39;;;;;;;4.40;3.30;;;12.80;90.60;;;;;;5065637;28;20052;-62
2021/06/02 06:38:19;;;;;;;4.03;3.20;;;12.80;90.70;;;;;;5063338;28;20043;-62
2021/06/02 06:40:48;;;;;;;3.90;3.20;;;12.90;90.80;;;;;;5062442;28;20036;-62
2021/06/02 06:43:16;;;;;;;3.85;3.35;;;12.90;90.60;;;;;;5056062;28;21173;-64
2021/06/02 06:45:45;;;;;;;8.40;3.60;;;13.00;90.70;;;;;;5061575;28;20658;-61
2021/06/02 06:48:16;;;;;;;5.07;3.30;;;13.00;90.60;;;;;;5054929;28;20040;-63
2021/06/02 06:50:46;;;;;;;;;;;13.00;90.50;;;;;;5060439;28;20037;-64
2021/06/02 06:53:13;;;;;;;4.35;3.28;;;13.00;90.40;;;;;;5057936;28;20531;-64
2021/06/02 06:55:39;;;;;;;3.50;3.17;;;13.10;90.40;;;;;;5058641;28;21007;-64
2021/06/02 06:58:06;;;;;;;5.10;3.30;;;13.10;90.30;;;;;;5051997;28;20035;-61
2021/06/02 07:00:34;;;;;;;3.80;3.35;;;13.10;90.30;;;;;;5053080;28;20037;-62
2021/06/02 07:03:00;;;;;;;3.80;3.38;;;13.10;90.20;;;;;;5050241;28;20156;-61
2021/06/02 07:05:27;;;;;;;7.10;3.28;;;13.10;90.30;;;;;;5044083;28;20121;-62
2021/06/02 07:07:53;;;;;;;3.78;3.13;;;13.10;90.20;;;;;;5047561;28;20800;-63
2021/06/02 07:10:21;;;;;;;4.57;3.20;;;13.10;90.20;;;;;;5051261;28;20044;-62
2021/06/02 07:12:49;;;;;;;4.07;3.40;;;13.20;90.20;;;;;;5047146;28;20040;-63
2021/06/02 07:15:16;;;;;;;4.72;3.17;;;13.20;90.20;;;;;;5052574;28;20137;-61
2021/06/02 07:17:49;;;;;;;4.60;3.10;;;13.30;90.30;;;;;;5051060;28;20027;-62
2021/06/02 07:20:24;;;;;;;3.80;3.10;;;13.30;90.30;;;;;;5051415;28;20588;-62
2021/06/02 07:22:52;;;;;;;3.33;3.00;;;13.30;90.30;;;;;;5054976;28;20033;-66
2021/06/02 07:25:20;;;;;;;4.20;3.15;;;13.30;90.20;;;;;;5054815;28;20029;-63
2021/06/02 07:27:47;;;;;;;6.90;3.75;;;13.40;90.20;;;;;;5051535;28;20036;-66
2021/06/02 07:30:15;;;;;;;4.95;3.20;;;13.40;90.00;;;;;;5052252;28;20067;-66
2021/06/02 07:32:41;;;;;;;3.20;2.90;;;13.50;90.10;;;;;;5055232;28;20094;-65
2021/06/02 07:35:08;;;;;;;3.88;3.47;;;13.50;90.10;;;;;;5052384;28;20135;-65
2021/06/02 07:37:34;;;;;;;5.25;3.50;;;13.50;90.00;;;;;;5046793;28;20040;-66
2021/06/02 07:40:00;;;;;;;5.57;3.10;;;13.50;89.80;;;;;;5051003;28;20488;-64
2021/06/02 07:42:26;;;;;;;4.70;3.17;;;13.50;89.50;;;;;;5055569;28;20388;-64
2021/06/02 07:44:53;;;;;;;6.50;3.60;;;13.60;90.10;;;;;;5056673;28;20419;-65
2021/06/02 07:47:19;;;;;;;5.13;3.53;;;13.60;89.50;;;;;;5054821;28;20033;-63
2021/06/02 07:49:44;;;;;;;6.85;4.38;;;13.70;89.50;;;;;;5056896;28;20028;-62
2021/06/02 07:52:10;;;;;;;5.57;3.63;;;13.70;89.10;;;;;;5046313;28;20887;-64
2021/06/02 07:54:36;;;;;;;3.58;3.00;;;13.70;88.90;;;;;;5050017;28;20135;-65
2021/06/02 07:57:02;;;;;;;4.68;3.28;;;13.70;88.70;;;;;;5051169;28;20109;-62
2021/06/02 07:59:28;;;;;;;3.33;2.80;;;13.70;88.90;;;;;;5057034;28;20036;-65
2021/06/02 08:01:53;;;;;;;4.20;3.40;;;13.80;88.60;;;;;;5050742;28;20040;-65
2021/06/02 08:04:19;;;;;;;6.28;3.10;;;13.80;88.60;;;;;;5052157;28;20031;-65
2021/06/02 08:06:45;;;;;;;4.15;3.03;;;13.80;88.30;;;;;;5052755;28;20028;-65
2021/06/02 08:09:16;;;;;;;4.07;3.17;;;13.90;87.90;;;;;;5046620;28;20036;-65
2021/06/02 08:11:43;;;;;;;4.72;2.90;;;13.90;88.20;;;;;;5057616;28;20037;-63
2021/06/02 08:14:09;;;;;;;5.63;3.20;;;13.90;88.20;;;;;;5052304;28;20071;-62
2021/06/02 08:16:34;;;;;;;3.58;3.15;;;13.90;87.90;;;;;;5055600;28;20125;-62
2021/06/02 08:19:00;;;;;;;3.15;2.80;;;14.00;87.80;;;;;;5056835;28;20581;-61
2021/06/02 08:21:25;;;;;;;4.43;3.00;;;14.00;87.60;;;;;;5053489;28;20116;-64
2021/06/02 08:23:51;;;;;;;4.95;3.20;;;14.00;87.40;;;;;;5052976;28;20524;-63
2021/06/02 08:26:17;;;;;;;4.25;2.85;;;14.00;87.60;;;;;;5054799;28;20450;-62
2021/06/02 08:28:42;;;;;;;6.85;3.38;;;14.10;87.50;;;;;;5048359;28;20445;-61
2021/06/02 08:31:08;;;;;;;4.93;3.17;;;14.10;87.30;;;;;;5046215;28;20059;-63
2021/06/02 08:33:34;;;;;;;6.13;3.15;;;14.10;87.60;;;;;;5054221;28;20063;-63
2021/06/02 08:36:00;;;;;;;3.78;2.97;;;14.10;87.60;;;;;;5054786;28;20028;-64
2021/06/02 08:38:26;;;;;;;5.57;3.15;;;14.00;87.40;;;;;;5055236;28;20025;-64
2021/06/02 08:40:52;;;;;;;3.92;3.30;;;14.00;87.20;;;;;;5057808;28;20040;-64
2021/06/02 08:43:21;;;;;;;4.55;2.83;;;14.00;87.70;;;;;;5052413;28;20037;-63
2021/06/02 08:45:50;;;;;;;4.90;3.00;;;14.00;87.90;;;;;;5052192;28;20489;-65
2021/06/02 08:48:16;;;;;;;4.15;3.17;;;13.90;88.10;;;;;;5044185;28;20044;-64
2021/06/02 08:50:42;;;;;;;5.68;2.92;;;13.90;88.40;;;;;;5041249;28;20177;-65
2021/06/02 08:53:08;;;;;;;3.13;2.80;;;13.90;88.70;;;;;;5049338;28;20152;-65
2021/06/02 08:55:34;;;;;;;4.95;3.30;;;13.90;88.80;;;;;;5046851;28;20044;-64
2021/06/02 08:58:00;;;;;;;6.22;2.92;;;14.00;88.80;;;;;;5050520;28;20361;-63
2021/06/02 09:00:26;;;;;;;3.38;3.08;;;14.00;88.70;;;;;;5048116;28;20248;-63
2021/06/02 09:02:57;;;;;;;3.20;2.90;;;14.00;88.60;;;;;;5050817;28;20048;-64
2021/06/02 09:05:26;;;;;;;3.67;2.75;;;14.00;88.60;;;;;;5054327;28;20039;-63
2021/06/02 09:07:54;;;;;;;3.33;2.80;;;14.00;88.20;;;;;;5054274;28;20064;-64
2021/06/02 09:10:21;;;;;;;4.82;2.90;;;14.00;88.60;;;;;;5046503;28;20095;-64
2021/06/02 09:12:54;;;;;;;4.43;2.80;;;14.00;88.60;;;;;;5053952;28;20032;-64
2021/06/02 09:15:19;;;;;;;4.10;3.13;;;14.10;88.20;;;;;;5054792;28;20543;-64
2021/06/02 09:17:56;;;;;;;4.63;3.03;;;14.20;88.30;;;;;;5053377;28;20033;-64
2021/06/02 09:20:46;;;;;;;3.47;2.90;;;14.10;88.20;;;;;;5056151;28;20411;-64
2021/06/02 09:23:32;;;;;;;4.50;3.30;;;14.20;88.30;;;;;;5055050;28;20037;-64
2021/06/02 09:26:04;;;;;;;3.92;3.10;;;14.20;87.90;;;;;;5050908;28;20166;-64
2021/06/02 09:28:45;;;;;;;3.95;2.88;;;14.30;87.80;;;;;;5053873;28;20074;-64
2021/06/02 09:31:41;;;;;;;3.95;2.90;;;14.30;87.60;;;;;;5056498;28;20032;-64
2021/06/02 09:34:25;;;;;;;3.50;3.00;;;14.30;87.50;;;;;;5057076;28;20051;-64
2021/06/02 09:37:05;;;;;;;5.18;2.85;;;14.30;87.50;;;;;;5053720;28;20039;-64
2021/06/02 09:39:41;;;;;;;3.80;2.90;;;14.30;87.70;;;;;;5049569;28;20112;-63
2021/06/02 09:42:44;;;;;;;3.88;3.05;;;14.30;87.50;;;;;;5057105;28;20067;-63
2021/06/02 09:45:12;;;;;;;3.45;3.05;;;14.30;88.00;;;;;;5044308;28;20507;-64
2021/06/02 09:47:45;;;;;;;6.30;3.15;;;14.30;88.40;;;;;;5056559;28;20458;-64
2021/06/02 09:50:13;;;;;;;3.97;2.80;;;14.30;88.60;;;;;;5054637;28;20028;-64
2021/06/02 09:52:44;;;;;;;4.88;3.25;;;14.30;88.60;;;;;;5051382;28;20523;-64
2021/06/02 09:55:40;;;;;;;3.70;3.20;;;14.30;88.80;;;;;;5051613;28;20342;-64
2021/06/02 09:58:05;;;;;;;4.78;3.20;;;14.30;88.40;;;;;;5050311;28;20083;-64
2021/06/02 10:00:45;;;;;;;4.05;2.97;;;14.30;88.40;;;;;;5049819;28;20149;-64
2021/06/02 10:03:16;;;;;;;3.80;3.03;;;14.40;88.80;;;;;;5055551;28;20166;-64
2021/06/02 10:05:44;;;;;;;4.43;3.42;;;14.40;88.70;;;;;;5057529;28;22289;-64
2021/06/02 10:08:11;;;;;;;5.20;3.28;;;14.40;88.60;;;;;;5053459;28;20035;-64
2021/06/02 10:10:40;;;;;;;4.20;3.40;;;14.50;88.90;;;;;;5055239;28;20451;-64
2021/06/02 10:13:05;;;;;;;6.05;3.20;;;14.50;88.70;;;;;;5073882;28;20076;-65
2021/06/02 10:15:31;;;;;;;4.38;3.10;;;14.50;89.00;;;;;;5056668;28;20821;-64
2021/06/02 10:17:57;;;;;;;5.72;3.28;;;14.60;89.00;;;;;;5056775;28;20041;-63
2021/06/02 10:20:23;;;;;;;6.57;4.03;;;14.60;88.80;;;;;;5059459;28;21101;-63
2021/06/02 10:22:57;;;;;;;5.60;3.67;;;14.60;89.00;;;;;;5057480;28;20043;-63
2021/06/02 10:25:24;;;;;;;5.47;3.10;;;14.60;89.00;;;;;;5054942;28;20031;-63
2021/06/02 10:27:53;;;;;;;4.80;3.45;;;14.60;88.90;;;;;;5059088;28;20059;-64
2021/06/02 10:30:22;;;;;;;4.53;3.10;;;14.70;88.90;;;;;;5052965;28;20037;-64
2021/06/02 10:32:49;;;;;;;5.00;3.38;;;14.70;89.00;;;;;;5057647;28;20036;-64
2021/06/02 10:35:14;;;;;;;5.05;3.45;;;14.70;89.00;;;;;;5055937;28;20040;-64
2021/06/02 10:37:42;;;;;;;4.53;3.15;;;14.80;89.10;;;;;;5057883;28;20028;-64
2021/06/02 10:40:20;;;;;;;3.70;3.10;;;14.80;88.90;;;;;;5057277;28;20200;-63
2021/06/02 10:43:07;;;;;;;4.90;3.70;;;14.80;88.90;;;;;;5049781;28;20028;-64
2021/06/02 10:45:38;;;;;;;3.92;3.25;;;14.90;88.50;;;;;;5051245;28;20069;-63
2021/06/02 10:48:04;;;;;;;;;;;14.90;88.30;;;;;;5053621;28;20384;-63
2021/06/02 10:50:31;;;;;;;4.50;2.88;;;14.90;88.20;;;;;;5054530;28;19923;-64
2021/06/02 10:52:59;;;;;;;5.13;3.08;;;14.90;88.30;;;;;;5055862;28;20400;-63
2021/06/02 10:55:34;;;;;;;3.47;3.17;;;15.00;88.20;;;;;;5046685;28;20113;-64
2021/06/02 10:58:22;;;;;;;3.70;3.00;;;15.00;88.00;;;;;;5059676;28;20051;-64
2021/06/02 11:00:51;;;;;;;3.55;2.95;;;15.00;88.00;;;;;;5037497;28;20053;-64
2021/06/02 11:03:27;;;;;;;5.35;3.13;;;15.00;88.10;;;;;;5043048;28;20033;-64
2021/06/02 11:06:05;;;;;;;4.05;2.95;;;15.10;88.10;;;;;;5044993;28;20039;-62
2021/06/02 11:08:52;;;;;;;3.78;3.10;;;15.10;88.20;;;;;;5051955;28;20028;-65
2021/06/02 11:11:29;;;;;;;5.93;3.45;;;15.10;88.10;;;;;;5048555;28;20028;-63
2021/06/02 11:14:16;;;;;;;5.55;3.35;;;15.10;88.00;;;;;;5056908;28;20028;-61
2021/06/02 11:16:45;;;;;;;4.38;3.13;;;15.10;88.30;;;;;;5048671;28;20091;-60
2021/06/02 11:19:15;;;;;;;4.38;3.13;;;15.10;88.40;;;;;;5050912;28;20028;-59
2021/06/02 11:21:53;;;;;;;4.43;3.42;;;15.10;88.30;;;;;;5042200;28;20039;-60
2021/06/02 11:24:32;;;;;;;4.93;3.17;;;15.10;88.30;;;;;;5043798;28;20032;-60
2021/06/02 11:27:29;;;;;;;3.40;3.05;;;15.10;88.20;;;;;;5047755;28;20158;-63
2021/06/02 11:29:54;;;;;;;4.15;3.08;;;15.10;88.20;;;;;;5035329;28;20040;-60
2021/06/02 11:32:31;;;;;;;5.43;3.30;;;15.10;88.60;;;;;;5047445;28;20047;-63
2021/06/02 11:34:59;;;;;;;5.22;3.38;;;15.20;88.80;;;;;;5050197;28;20033;-64
2021/06/02 11:37:30;;;;;;;4.82;3.22;;;15.20;88.80;;;;;;5054334;28;20052;-65
2021/06/02 11:39:57;;;;;;;5.33;3.50;;;15.30;88.60;;;;;;5049521;28;20689;-65
2021/06/02 11:42:27;;;;;;;4.78;3.60;;;15.30;89.60;;;;;;5041687;28;20895;-64
2021/06/02 11:44:58;;;;;;;4.18;3.20;;;15.30;89.30;;;;;;5051446;28;20066;-64
2021/06/02 11:47:24;;;;;;;5.45;3.85;;;15.20;89.50;;;;;;5048396;28;20041;-64
2021/06/02 11:49:50;;;;;;;5.78;3.97;;;15.20;89.80;;;;;;5051296;28;20442;-63
2021/06/02 11:52:17;;;;;;;7.00;3.55;;;15.20;90.10;;;;;;5050139;28;20104;-64
2021/06/02 11:54:52;;;;;;;7.45;3.75;;;15.10;90.20;;;;;;5055390;28;20430;-64
2021/06/02 11:57:25;;;;;;;6.18;3.97;;;15.20;90.30;;;;;;5054590;28;20088;-63
2021/06/02 11:59:51;;;;;;;5.07;3.38;;;15.10;90.50;;;;;;5050086;28;20040;-65
2021/06/02 12:02:17;;;;;;;4.22;3.40;;;15.10;90.60;;;;;;5044550;28;20678;-64
2021/06/02 12:04:43;;;;;;;4.80;3.70;;;15.10;90.60;;;;;;5056052;28;20048;-65
2021/06/02 12:07:28;;;;;;;5.93;3.35;;;15.10;90.80;;;;;;5055249;28;20036;-63
2021/06/02 12:09:58;;;;;;;5.65;3.85;;;15.10;90.80;;;;;;5059754;28;22176;-63
2021/06/02 12:12:37;;;;;;;4.32;3.33;;;15.10;91.00;;;;;;5055059;28;20033;-64
2021/06/02 12:15:03;;;;;;;5.50;4.03;;;15.10;91.10;;;;;;5056464;28;20104;-63
2021/06/02 12:17:30;;;;;;;3.90;3.50;;;15.10;91.20;;;;;;5046743;28;20078;-61
2021/06/02 12:19:56;;;;;;;4.78;3.17;;;15.20;91.20;;;;;;5056048;28;20029;-62
2021/06/02 12:22:22;;;;;;;4.95;3.30;;;15.20;91.20;;;;;;5052289;28;21112;-65
2021/06/02 12:25:18;;;;;;;4.82;3.35;;;15.20;91.30;;;;;;5052859;28;20036;-65
2021/06/02 12:27:55;;;;;;;4.75;3.63;;;15.20;91.10;;;;;;5051339;28;20101;-61
2021/06/02 12:30:34;;;;;;;5.25;3.33;;;15.20;91.30;;;;;;5050181;28;20043;-60
2021/06/02 12:33:01;;;;;;;4.55;3.58;;;15.30;91.40;;;;;;5048849;28;20036;-61
2021/06/02 12:35:28;;;;;;;4.85;3.30;;;15.20;91.40;;;;;;5056413;28;20039;-61
2021/06/02 12:38:01;;;;;;;4.40;3.40;;;15.30;91.40;;;;;;5052608;28;20500;-63
2021/06/02 12:40:27;;;;;;;5.35;3.55;;;15.30;91.40;;;;;;5054926;28;20036;-61
2021/06/02 12:42:53;;;;;;;6.18;3.67;;;15.30;91.40;;;;;;5056265;28;20623;-62
2021/06/02 12:45:24;;;;;;;4.72;3.55;;;15.30;91.50;;;;;;5057335;28;20044;-64
2021/06/02 12:47:50;;;;;;;5.65;3.70;;;15.30;91.50;;;;;;5057852;28;20091;-61
2021/06/02 12:50:36;;;;;;;3.42;3.13;;;15.30;91.60;;;;;;5033220;28;20036;-61
2021/06/02 12:53:02;;;;;;;4.47;3.70;;;15.40;91.60;;;;;;5055376;28;20090;-64
2021/06/02 12:55:28;;;;;;;4.93;3.70;;;15.40;91.70;;;;;;5058857;28;20035;-65
2021/06/02 12:58:05;;;;;;;5.20;3.30;;;15.40;91.70;;;;;;5060247;28;20728;-65
2021/06/02 13:00:31;;;;;;;5.00;3.67;;;15.40;91.70;;;;;;5055206;28;20384;-66
2021/06/02 13:02:58;;;;;;;4.80;3.90;;;15.50;91.70;;;;;;5052043;28;20029;-61
2021/06/02 13:05:25;;;;;;;6.03;3.45;;;15.50;91.70;;;;;;5057788;28;20032;-61
2021/06/02 13:07:51;;;;;;;7.30;3.78;;;15.50;91.70;;;;;;5054240;28;20115;-61
2021/06/02 13:10:18;;;;;;;6.18;3.40;;;15.60;91.80;;;;;;5046806;28;20037;-60
2021/06/02 13:12:52;;;;;;;3.88;3.30;;;15.60;91.70;;;;;;5050151;28;20142;-60
2021/06/02 13:15:23;;;;;;;5.15;3.13;;;15.70;91.60;;;;;;5058377;28;20032;-60
2021/06/02 13:17:48;;;;;;;;;;;15.60;91.50;;;;;;5058732;28;20115;-61
2021/06/02 13:20:31;;;;;;;4.40;3.50;;;15.60;91.40;;;;;;5058208;28;20061;-61
2021/06/02 13:23:31;;;;;;;5.25;3.30;;;15.70;91.60;;;;;;5052164;28;20032;-61
2021/06/02 13:26:14;;;;;;;7.80;4.05;;;15.70;91.50;;;;;;5051541;28;20167;-60
2021/06/02 13:28:55;;;;;;;5.47;3.60;;;15.80;91.50;;;;;;5058482;28;20139;-61
2021/06/02 13:31:45;;;;;;;4.75;3.20;;;15.80;91.60;;;;;;5052099;28;20143;-61